sensor_id;sensor_type;location;lat;lon;timestamp;temperature;humidity
21734;DHT22;11029;47.820;10.534;2022-08-02T00:00:35;17.30;76.70
21734;DHT22;11029;47.820;10.534;2022-08-02T00:03:02;17.40;76.60
21734;DHT22;11029;47.820;10.534;2022-08-02T00:05:29;17.40;76.50
21734;DHT22;11029;47.820;10.534;2022-08-02T00:07:55;17.50;76.10
21734;DHT22;11029;47.820;10.534;2022-08-02T00:10:22;17.50;75.90
21734;DHT22;11029;47.820;10.534;2022-08-02T00:12:49;17.30;76.20
21734;DHT22;11029;47.820;10.534;2022-08-02T00:15:18;17.20;77.00
21734;DHT22;11029;47.820;10.534;2022-08-02T00:17:45;17.20;76.90
21734;DHT22;11029;47.820;10.534;2022-08-02T00:20:14;17.20;77.50
21734;DHT22;11029;47.820;10.534;2022-08-02T00:22:41;17.20;77.10
21734;DHT22;11029;47.820;10.534;2022-08-02T00:25:08;17.20;77.10
21734;DHT22;11029;47.820;10.534;2022-08-02T00:27:35;17.20;77.10
21734;DHT22;11029;47.820;10.534;2022-08-02T00:30:02;17.30;77.20
21734;DHT22;11029;47.820;10.534;2022-08-02T00:32:29;17.30;76.80
21734;DHT22;11029;47.820;10.534;2022-08-02T00:34:55;17.30;76.10
21734;DHT22;11029;47.820;10.534;2022-08-02T00:37:22;17.20;76.50
21734;DHT22;11029;47.820;10.534;2022-08-02T00:39:49;17.20;76.60
21734;DHT22;11029;47.820;10.534;2022-08-02T00:42:17;17.20;76.60
21734;DHT22;11029;47.820;10.534;2022-08-02T00:44:43;17.20;77.40
21734;DHT22;11029;47.820;10.534;2022-08-02T00:47:10;17.30;77.40
21734;DHT22;11029;47.820;10.534;2022-08-02T00:49:44;17.30;76.90
21734;DHT22;11029;47.820;10.534;2022-08-02T00:52:11;17.30;76.70
21734;DHT22;11029;47.820;10.534;2022-08-02T00:54:38;17.40;76.40
21734;DHT22;11029;47.820;10.534;2022-08-02T00:57:05;17.30;76.70
21734;DHT22;11029;47.820;10.534;2022-08-02T00:59:32;17.40;76.90
21734;DHT22;11029;47.820;10.534;2022-08-02T01:01:58;17.40;76.00
21734;DHT22;11029;47.820;10.534;2022-08-02T01:04:25;17.40;76.40
21734;DHT22;11029;47.820;10.534;2022-08-02T01:07:01;17.40;76.20
21734;DHT22;11029;47.820;10.534;2022-08-02T01:09:43;17.40;76.30
21734;DHT22;11029;47.820;10.534;2022-08-02T01:12:10;17.40;76.00
21734;DHT22;11029;47.820;10.534;2022-08-02T01:14:43;17.40;76.20
21734;DHT22;11029;47.820;10.534;2022-08-02T01:25:43;17.30;76.50
21734;DHT22;11029;47.820;10.534;2022-08-02T01:28:42;17.30;76.30
21734;DHT22;11029;47.820;10.534;2022-08-02T01:31:34;17.30;76.10
21734;DHT22;11029;47.820;10.534;2022-08-02T01:34:28;17.20;76.20
21734;DHT22;11029;47.820;10.534;2022-08-02T01:37:31;17.20;76.00
21734;DHT22;11029;47.820;10.534;2022-08-02T01:40:07;17.20;76.10
21734;DHT22;11029;47.820;10.534;2022-08-02T01:42:37;17.20;76.40
21734;DHT22;11029;47.820;10.534;2022-08-02T01:45:06;17.10;76.70
21734;DHT22;11029;47.820;10.534;2022-08-02T01:47:35;17.10;76.70
21734;DHT22;11029;47.820;10.534;2022-08-02T01:50:06;17.00;76.70
21734;DHT22;11029;47.820;10.534;2022-08-02T01:52:36;17.00;77.30
21734;DHT22;11029;47.820;10.534;2022-08-02T01:55:12;17.00;77.20
21734;DHT22;11029;47.820;10.534;2022-08-02T01:57:48;17.00;77.10
21734;DHT22;11029;47.820;10.534;2022-08-02T02:00:15;17.00;77.70
21734;DHT22;11029;47.820;10.534;2022-08-02T02:02:45;16.90;78.40
21734;DHT22;11029;47.820;10.534;2022-08-02T02:05:16;16.80;78.70
21734;DHT22;11029;47.820;10.534;2022-08-02T02:07:47;16.70;78.50
21734;DHT22;11029;47.820;10.534;2022-08-02T02:10:18;16.80;78.10
21734;DHT22;11029;47.820;10.534;2022-08-02T02:12:48;16.80;77.70
21734;DHT22;11029;47.820;10.534;2022-08-02T02:15:16;16.80;77.50
21734;DHT22;11029;47.820;10.534;2022-08-02T02:17:48;16.80;77.60
21734;DHT22;11029;47.820;10.534;2022-08-02T02:20:36;16.80;77.50
21734;DHT22;11029;47.820;10.534;2022-08-02T02:23:03;16.80;77.20
21734;DHT22;11029;47.820;10.534;2022-08-02T02:25:31;16.80;77.60
21734;DHT22;11029;47.820;10.534;2022-08-02T02:28:11;16.70;76.40
21734;DHT22;11029;47.820;10.534;2022-08-02T02:30:41;16.50;78.30
21734;DHT22;11029;47.820;10.534;2022-08-02T02:33:10;16.50;78.60
21734;DHT22;11029;47.820;10.534;2022-08-02T02:35:39;16.60;79.10
21734;DHT22;11029;47.820;10.534;2022-08-02T02:38:10;16.50;79.10
21734;DHT22;11029;47.820;10.534;2022-08-02T02:40:39;16.60;78.80
21734;DHT22;11029;47.820;10.534;2022-08-02T02:43:08;16.50;77.10
21734;DHT22;11029;47.820;10.534;2022-08-02T02:45:37;16.30;76.70
21734;DHT22;11029;47.820;10.534;2022-08-02T02:48:05;16.20;78.40
21734;DHT22;11029;47.820;10.534;2022-08-02T02:50:33;16.20;78.80
21734;DHT22;11029;47.820;10.534;2022-08-02T02:53:00;16.30;78.90
21734;DHT22;11029;47.820;10.534;2022-08-02T02:55:28;16.30;78.10
21734;DHT22;11029;47.820;10.534;2022-08-02T02:57:55;16.30;78.50
21734;DHT22;11029;47.820;10.534;2022-08-02T03:00:22;16.30;78.10
21734;DHT22;11029;47.820;10.534;2022-08-02T03:03:09;16.30;78.40
21734;DHT22;11029;47.820;10.534;2022-08-02T03:05:36;16.30;78.70
21734;DHT22;11029;47.820;10.534;2022-08-02T03:08:03;16.30;78.40
21734;DHT22;11029;47.820;10.534;2022-08-02T03:10:30;16.30;77.30
21734;DHT22;11029;47.820;10.534;2022-08-02T03:12:58;16.20;76.40
21734;DHT22;11029;47.820;10.534;2022-08-02T03:15:26;16.20;77.30
21734;DHT22;11029;47.820;10.534;2022-08-02T03:17:54;16.20;77.50
21734;DHT22;11029;47.820;10.534;2022-08-02T03:20:21;16.10;77.20
21734;DHT22;11029;47.820;10.534;2022-08-02T03:22:50;16.00;77.90
21734;DHT22;11029;47.820;10.534;2022-08-02T03:25:17;16.00;77.50
21734;DHT22;11029;47.820;10.534;2022-08-02T03:27:44;15.90;77.40
21734;DHT22;11029;47.820;10.534;2022-08-02T03:30:12;15.80;77.50
21734;DHT22;11029;47.820;10.534;2022-08-02T03:32:44;15.80;77.70
21734;DHT22;11029;47.820;10.534;2022-08-02T03:35:14;15.70;78.30
21734;DHT22;11029;47.820;10.534;2022-08-02T03:37:46;15.70;78.50
21734;DHT22;11029;47.820;10.534;2022-08-02T03:40:13;15.70;78.50
21734;DHT22;11029;47.820;10.534;2022-08-02T03:42:41;15.60;79.00
21734;DHT22;11029;47.820;10.534;2022-08-02T03:45:09;15.60;79.50
21734;DHT22;11029;47.820;10.534;2022-08-02T03:47:37;15.70;78.70
21734;DHT22;11029;47.820;10.534;2022-08-02T03:50:10;15.60;78.30
21734;DHT22;11029;47.820;10.534;2022-08-02T03:52:40;15.60;76.80
21734;DHT22;11029;47.820;10.534;2022-08-02T03:55:11;15.50;77.60
21734;DHT22;11029;47.820;10.534;2022-08-02T03:57:42;15.50;78.30
21734;DHT22;11029;47.820;10.534;2022-08-02T04:00:11;15.50;78.00
21734;DHT22;11029;47.820;10.534;2022-08-02T04:02:39;15.60;78.00
21734;DHT22;11029;47.820;10.534;2022-08-02T04:05:06;15.50;76.70
21734;DHT22;11029;47.820;10.534;2022-08-02T04:07:34;15.40;77.50
21734;DHT22;11029;47.820;10.534;2022-08-02T04:10:20;15.20;77.90
21734;DHT22;11029;47.820;10.534;2022-08-02T04:12:47;15.10;79.20
21734;DHT22;11029;47.820;10.534;2022-08-02T04:15:14;15.10;78.50
21734;DHT22;11029;47.820;10.534;2022-08-02T04:17:47;15.00;79.60
21734;DHT22;11029;47.820;10.534;2022-08-02T04:20:29;15.10;79.70
21734;DHT22;11029;47.820;10.534;2022-08-02T04:23:06;15.20;78.50
21734;DHT22;11029;47.820;10.534;2022-08-02T04:25:35;15.30;77.80
21734;DHT22;11029;47.820;10.534;2022-08-02T04:28:07;15.30;77.30
21734;DHT22;11029;47.820;10.534;2022-08-02T04:30:44;15.20;76.80
21734;DHT22;11029;47.820;10.534;2022-08-02T04:33:12;15.20;77.50
21734;DHT22;11029;47.820;10.534;2022-08-02T04:35:39;15.20;77.90
21734;DHT22;11029;47.820;10.534;2022-08-02T04:38:05;15.30;78.40
21734;DHT22;11029;47.820;10.534;2022-08-02T04:40:36;15.30;78.20
21734;DHT22;11029;47.820;10.534;2022-08-02T04:43:03;15.40;77.60
21734;DHT22;11029;47.820;10.534;2022-08-02T04:45:30;15.20;75.80
21734;DHT22;11029;47.820;10.534;2022-08-02T04:47:58;15.00;76.70
21734;DHT22;11029;47.820;10.534;2022-08-02T04:50:31;14.90;78.00
21734;DHT22;11029;47.820;10.534;2022-08-02T04:52:57;14.90;78.50
21734;DHT22;11029;47.820;10.534;2022-08-02T04:55:24;15.00;78.40
21734;DHT22;11029;47.820;10.534;2022-08-02T04:57:55;15.10;78.50
21734;DHT22;11029;47.820;10.534;2022-08-02T05:00:24;15.10;77.80
21734;DHT22;11029;47.820;10.534;2022-08-02T05:02:51;15.10;76.90
21734;DHT22;11029;47.820;10.534;2022-08-02T05:05:18;15.00;78.00
21734;DHT22;11029;47.820;10.534;2022-08-02T05:07:45;15.10;77.70
21734;DHT22;11029;47.820;10.534;2022-08-02T05:10:12;15.10;78.00
21734;DHT22;11029;47.820;10.534;2022-08-02T05:12:39;15.10;78.90
21734;DHT22;11029;47.820;10.534;2022-08-02T05:15:08;15.20;79.10
21734;DHT22;11029;47.820;10.534;2022-08-02T05:17:38;15.20;78.90
21734;DHT22;11029;47.820;10.534;2022-08-02T05:20:17;15.30;78.70
21734;DHT22;11029;47.820;10.534;2022-08-02T05:22:44;15.40;78.90
21734;DHT22;11029;47.820;10.534;2022-08-02T05:25:11;15.40;78.90
21734;DHT22;11029;47.820;10.534;2022-08-02T05:27:38;15.50;78.30
21734;DHT22;11029;47.820;10.534;2022-08-02T05:30:06;15.60;78.60
21734;DHT22;11029;47.820;10.534;2022-08-02T05:32:32;15.60;79.30
21734;DHT22;11029;47.820;10.534;2022-08-02T05:35:03;15.80;78.90
21734;DHT22;11029;47.820;10.534;2022-08-02T05:37:30;16.00;78.00
21734;DHT22;11029;47.820;10.534;2022-08-02T05:40:00;16.00;77.80
21734;DHT22;11029;47.820;10.534;2022-08-02T05:42:30;16.10;77.90
21734;DHT22;11029;47.820;10.534;2022-08-02T05:44:58;16.20;78.00
21734;DHT22;11029;47.820;10.534;2022-08-02T05:47:25;16.20;78.20
21734;DHT22;11029;47.820;10.534;2022-08-02T05:49:51;16.30;77.70
21734;DHT22;11029;47.820;10.534;2022-08-02T05:52:19;16.50;77.20
21734;DHT22;11029;47.820;10.534;2022-08-02T05:55:07;16.60;77.00
21734;DHT22;11029;47.820;10.534;2022-08-02T05:57:55;16.70;76.60
21734;DHT22;11029;47.820;10.534;2022-08-02T06:00:29;16.90;74.70
21734;DHT22;11029;47.820;10.534;2022-08-02T06:03:17;16.90;74.90
21734;DHT22;11029;47.820;10.534;2022-08-02T06:08:20;17.10;74.50
21734;DHT22;11029;47.820;10.534;2022-08-02T06:10:47;17.10;74.10
21734;DHT22;11029;47.820;10.534;2022-08-02T06:13:16;17.20;74.80
21734;DHT22;11029;47.820;10.534;2022-08-02T06:15:43;17.30;74.60
21734;DHT22;11029;47.820;10.534;2022-08-02T06:18:19;17.40;74.30
21734;DHT22;11029;47.820;10.534;2022-08-02T06:20:59;17.50;73.80
21734;DHT22;11029;47.820;10.534;2022-08-02T06:23:47;17.60;72.70
21734;DHT22;11029;47.820;10.534;2022-08-02T06:26:26;17.80;72.40
21734;DHT22;11029;47.820;10.534;2022-08-02T06:28:55;17.90;71.90
21734;DHT22;11029;47.820;10.534;2022-08-02T06:31:22;18.00;70.90
21734;DHT22;11029;47.820;10.534;2022-08-02T06:33:49;17.90;70.90
21734;DHT22;11029;47.820;10.534;2022-08-02T06:39:02;18.10;72.10
21734;DHT22;11029;47.820;10.534;2022-08-02T06:41:36;18.20;72.30
21734;DHT22;11029;47.820;10.534;2022-08-02T06:44:11;18.40;72.00
21734;DHT22;11029;47.820;10.534;2022-08-02T06:46:58;18.50;72.00
21734;DHT22;11029;47.820;10.534;2022-08-02T06:49:39;18.60;71.30
21734;DHT22;11029;47.820;10.534;2022-08-02T06:52:27;18.70;71.50
21734;DHT22;11029;47.820;10.534;2022-08-02T06:54:58;18.90;72.10
21734;DHT22;11029;47.820;10.534;2022-08-02T06:57:26;19.00;71.70
21734;DHT22;11029;47.820;10.534;2022-08-02T06:59:53;19.10;70.60
21734;DHT22;11029;47.820;10.534;2022-08-02T07:02:20;19.20;71.00
21734;DHT22;11029;47.820;10.534;2022-08-02T07:04:47;19.30;70.50
21734;DHT22;11029;47.820;10.534;2022-08-02T07:07:14;19.40;71.20
21734;DHT22;11029;47.820;10.534;2022-08-02T07:09:41;19.50;70.50
21734;DHT22;11029;47.820;10.534;2022-08-02T07:12:28;19.60;70.10
21734;DHT22;11029;47.820;10.534;2022-08-02T07:14:57;19.50;68.90
21734;DHT22;11029;47.820;10.534;2022-08-02T07:17:24;19.50;69.60
21734;DHT22;11029;47.820;10.534;2022-08-02T07:19:51;19.60;69.10
21734;DHT22;11029;47.820;10.534;2022-08-02T07:22:18;19.80;69.20
21734;DHT22;11029;47.820;10.534;2022-08-02T07:24:49;19.80;68.60
21734;DHT22;11029;47.820;10.534;2022-08-02T07:27:16;19.80;68.20
21734;DHT22;11029;47.820;10.534;2022-08-02T07:29:43;19.90;69.70
21734;DHT22;11029;47.820;10.534;2022-08-02T07:32:20;20.10;68.50
21734;DHT22;11029;47.820;10.534;2022-08-02T07:34:47;20.00;67.90
21734;DHT22;11029;47.820;10.534;2022-08-02T07:37:20;20.10;67.20
21734;DHT22;11029;47.820;10.534;2022-08-02T07:40:09;20.20;65.80
21734;DHT22;11029;47.820;10.534;2022-08-02T07:42:44;20.20;66.00
21734;DHT22;11029;47.820;10.534;2022-08-02T07:45:12;20.30;65.70
21734;DHT22;11029;47.820;10.534;2022-08-02T07:47:40;20.30;65.50
21734;DHT22;11029;47.820;10.534;2022-08-02T07:50:07;20.40;65.40
21734;DHT22;11029;47.820;10.534;2022-08-02T07:52:35;20.50;65.00
21734;DHT22;11029;47.820;10.534;2022-08-02T07:55:05;20.50;65.50
21734;DHT22;11029;47.820;10.534;2022-08-02T07:57:32;20.60;63.80
21734;DHT22;11029;47.820;10.534;2022-08-02T07:59:59;20.40;62.80
21734;DHT22;11029;47.820;10.534;2022-08-02T08:02:26;20.40;62.60
21734;DHT22;11029;47.820;10.534;2022-08-02T08:04:53;20.40;62.10
21734;DHT22;11029;47.820;10.534;2022-08-02T08:07:20;20.30;62.10
21734;DHT22;11029;47.820;10.534;2022-08-02T08:09:46;20.40;62.80
21734;DHT22;11029;47.820;10.534;2022-08-02T08:12:20;20.40;63.30
21734;DHT22;11029;47.820;10.534;2022-08-02T08:14:47;20.30;63.00
21734;DHT22;11029;47.820;10.534;2022-08-02T08:17:14;20.40;64.20
21734;DHT22;11029;47.820;10.534;2022-08-02T08:19:41;20.50;63.40
21734;DHT22;11029;47.820;10.534;2022-08-02T08:22:18;20.60;64.40
21734;DHT22;11029;47.820;10.534;2022-08-02T08:24:45;20.80;63.10
21734;DHT22;11029;47.820;10.534;2022-08-02T08:27:14;20.90;63.30
21734;DHT22;11029;47.820;10.534;2022-08-02T08:29:42;21.10;63.20
21734;DHT22;11029;47.820;10.534;2022-08-02T08:32:09;21.20;62.40
21734;DHT22;11029;47.820;10.534;2022-08-02T08:34:43;21.20;62.70
21734;DHT22;11029;47.820;10.534;2022-08-02T08:37:10;21.20;62.00
21734;DHT22;11029;47.820;10.534;2022-08-02T08:39:48;21.00;60.90
21734;DHT22;11029;47.820;10.534;2022-08-02T08:42:28;20.90;60.50
21734;DHT22;11029;47.820;10.534;2022-08-02T08:44:55;21.00;61.50
21734;DHT22;11029;47.820;10.534;2022-08-02T08:47:32;21.00;61.20
21734;DHT22;11029;47.820;10.534;2022-08-02T08:50:03;21.20;61.50
21734;DHT22;11029;47.820;10.534;2022-08-02T08:52:35;21.20;60.70
21734;DHT22;11029;47.820;10.534;2022-08-02T08:55:07;21.30;59.90
21734;DHT22;11029;47.820;10.534;2022-08-02T08:57:36;21.40;61.70
21734;DHT22;11029;47.820;10.534;2022-08-02T09:00:06;21.50;60.90
21734;DHT22;11029;47.820;10.534;2022-08-02T09:02:33;21.80;61.40
21734;DHT22;11029;47.820;10.534;2022-08-02T09:05:01;21.90;60.20
21734;DHT22;11029;47.820;10.534;2022-08-02T09:07:28;22.00;60.50
21734;DHT22;11029;47.820;10.534;2022-08-02T09:09:55;22.10;60.10
21734;DHT22;11029;47.820;10.534;2022-08-02T09:12:21;22.20;59.40
21734;DHT22;11029;47.820;10.534;2022-08-02T09:14:50;22.40;57.90
21734;DHT22;11029;47.820;10.534;2022-08-02T09:17:17;22.30;56.70
21734;DHT22;11029;47.820;10.534;2022-08-02T09:20:05;22.10;57.30
21734;DHT22;11029;47.820;10.534;2022-08-02T09:22:32;22.10;56.30
21734;DHT22;11029;47.820;10.534;2022-08-02T09:24:59;22.00;57.50
21734;DHT22;11029;47.820;10.534;2022-08-02T09:27:25;22.20;59.00
21734;DHT22;11029;47.820;10.534;2022-08-02T09:29:53;22.50;58.10
21734;DHT22;11029;47.820;10.534;2022-08-02T09:32:46;22.50;57.00
21734;DHT22;11029;47.820;10.534;2022-08-02T09:35:35;22.60;55.30
21734;DHT22;11029;47.820;10.534;2022-08-02T09:38:22;22.70;55.80
21734;DHT22;11029;47.820;10.534;2022-08-02T09:40:52;22.80;55.50
21734;DHT22;11029;47.820;10.534;2022-08-02T09:43:19;22.80;56.10
21734;DHT22;11029;47.820;10.534;2022-08-02T09:45:46;22.80;56.70
21734;DHT22;11029;47.820;10.534;2022-08-02T09:48:13;22.70;56.40
21734;DHT22;11029;47.820;10.534;2022-08-02T09:50:40;22.70;56.40
21734;DHT22;11029;47.820;10.534;2022-08-02T09:53:12;22.80;56.10
21734;DHT22;11029;47.820;10.534;2022-08-02T09:55:40;22.80;55.30
21734;DHT22;11029;47.820;10.534;2022-08-02T09:58:18;22.90;55.70
21734;DHT22;11029;47.820;10.534;2022-08-02T10:00:56;22.90;56.60
21734;DHT22;11029;47.820;10.534;2022-08-02T10:03:24;22.90;56.20
21734;DHT22;11029;47.820;10.534;2022-08-02T10:06:01;23.00;56.80
21734;DHT22;11029;47.820;10.534;2022-08-02T10:08:30;23.30;56.50
21734;DHT22;11029;47.820;10.534;2022-08-02T10:10:59;23.30;54.40
21734;DHT22;11029;47.820;10.534;2022-08-02T10:13:32;23.20;55.00
21734;DHT22;11029;47.820;10.534;2022-08-02T10:16:01;23.30;55.60
21734;DHT22;11029;47.820;10.534;2022-08-02T10:18:32;23.30;55.20
21734;DHT22;11029;47.820;10.534;2022-08-02T10:21:14;23.30;54.70
21734;DHT22;11029;47.820;10.534;2022-08-02T10:23:43;23.20;54.10
21734;DHT22;11029;47.820;10.534;2022-08-02T10:26:14;23.20;54.10
21734;DHT22;11029;47.820;10.534;2022-08-02T10:28:45;23.10;57.10
21734;DHT22;11029;47.820;10.534;2022-08-02T10:31:16;23.20;55.70
21734;DHT22;11029;47.820;10.534;2022-08-02T10:33:45;23.40;55.60
21734;DHT22;11029;47.820;10.534;2022-08-02T10:36:16;23.60;55.60
21734;DHT22;11029;47.820;10.534;2022-08-02T10:38:44;23.70;54.30
21734;DHT22;11029;47.820;10.534;2022-08-02T10:41:11;23.90;55.00
21734;DHT22;11029;47.820;10.534;2022-08-02T10:43:42;24.00;53.10
21734;DHT22;11029;47.820;10.534;2022-08-02T10:46:35;23.90;52.00
21734;DHT22;11029;47.820;10.534;2022-08-02T10:49:22;23.60;54.60
21734;DHT22;11029;47.820;10.534;2022-08-02T10:52:06;23.90;52.90
21734;DHT22;11029;47.820;10.534;2022-08-02T10:54:37;23.90;52.70
21734;DHT22;11029;47.820;10.534;2022-08-02T10:57:16;23.90;53.70
21734;DHT22;11029;47.820;10.534;2022-08-02T10:59:44;24.00;52.30
21734;DHT22;11029;47.820;10.534;2022-08-02T11:02:11;23.90;53.20
21734;DHT22;11029;47.820;10.534;2022-08-02T11:09:37;24.10;52.30
21734;DHT22;11029;47.820;10.534;2022-08-02T11:12:12;24.30;53.30
21734;DHT22;11029;47.820;10.534;2022-08-02T11:14:43;24.60;51.40
21734;DHT22;11029;47.820;10.534;2022-08-02T11:17:15;24.60;51.10
21734;DHT22;11029;47.820;10.534;2022-08-02T11:22:35;24.70;51.10
21734;DHT22;11029;47.820;10.534;2022-08-02T11:27:51;24.50;50.00
21734;DHT22;11029;47.820;10.534;2022-08-02T11:30:19;24.30;51.70
21734;DHT22;11029;47.820;10.534;2022-08-02T11:32:59;24.30;50.60
21734;DHT22;11029;47.820;10.534;2022-08-02T11:35:33;24.40;50.70
21734;DHT22;11029;47.820;10.534;2022-08-02T11:38:14;24.50;50.00
21734;DHT22;11029;47.820;10.534;2022-08-02T11:40:42;24.60;49.50
21734;DHT22;11029;47.820;10.534;2022-08-02T11:43:18;24.40;49.40
21734;DHT22;11029;47.820;10.534;2022-08-02T11:45:45;24.50;50.70
21734;DHT22;11029;47.820;10.534;2022-08-02T11:48:12;24.80;50.30
21734;DHT22;11029;47.820;10.534;2022-08-02T11:50:39;24.90;49.30
21734;DHT22;11029;47.820;10.534;2022-08-02T11:53:14;25.10;48.60
21734;DHT22;11029;47.820;10.534;2022-08-02T11:55:41;25.20;49.10
21734;DHT22;11029;47.820;10.534;2022-08-02T11:58:09;25.30;48.80
21734;DHT22;11029;47.820;10.534;2022-08-02T12:00:37;25.40;48.40
21734;DHT22;11029;47.820;10.534;2022-08-02T12:03:05;25.30;47.80
21734;DHT22;11029;47.820;10.534;2022-08-02T12:05:32;25.30;48.50
21734;DHT22;11029;47.820;10.534;2022-08-02T12:08:19;25.50;47.10
21734;DHT22;11029;47.820;10.534;2022-08-02T12:10:51;25.50;48.30
21734;DHT22;11029;47.820;10.534;2022-08-02T12:13:17;25.70;48.30
21734;DHT22;11029;47.820;10.534;2022-08-02T12:15:45;25.70;47.70
21734;DHT22;11029;47.820;10.534;2022-08-02T12:18:20;25.80;46.60
21734;DHT22;11029;47.820;10.534;2022-08-02T12:21:23;25.80;47.90
21734;DHT22;11029;47.820;10.534;2022-08-02T12:23:50;25.80;48.20
21734;DHT22;11029;47.820;10.534;2022-08-02T12:26:27;25.80;47.60
21734;DHT22;11029;47.820;10.534;2022-08-02T12:28:56;25.80;47.10
21734;DHT22;11029;47.820;10.534;2022-08-02T12:31:44;25.70;48.10
21734;DHT22;11029;47.820;10.534;2022-08-02T12:34:25;25.70;47.90
21734;DHT22;11029;47.820;10.534;2022-08-02T12:37:08;25.80;48.10
21734;DHT22;11029;47.820;10.534;2022-08-02T12:39:41;25.90;48.10
21734;DHT22;11029;47.820;10.534;2022-08-02T12:42:11;26.10;46.90
21734;DHT22;11029;47.820;10.534;2022-08-02T12:44:50;26.20;47.50
21734;DHT22;11029;47.820;10.534;2022-08-02T12:47:17;26.30;47.40
21734;DHT22;11029;47.820;10.534;2022-08-02T12:50:26;26.20;46.60
21734;DHT22;11029;47.820;10.534;2022-08-02T12:53:04;26.20;45.90
21734;DHT22;11029;47.820;10.534;2022-08-02T12:55:32;26.30;46.20
21734;DHT22;11029;47.820;10.534;2022-08-02T12:58:21;26.30;45.80
21734;DHT22;11029;47.820;10.534;2022-08-02T13:00:53;26.50;45.10
21734;DHT22;11029;47.820;10.534;2022-08-02T13:03:21;26.50;45.40
21734;DHT22;11029;47.820;10.534;2022-08-02T13:06:09;26.40;45.80
21734;DHT22;11029;47.820;10.534;2022-08-02T13:08:56;26.60;45.00
21734;DHT22;11029;47.820;10.534;2022-08-02T13:11:24;26.80;45.00
21734;DHT22;11029;47.820;10.534;2022-08-02T13:13:51;27.10;45.50
21734;DHT22;11029;47.820;10.534;2022-08-02T13:16:18;27.40;44.90
21734;DHT22;11029;47.820;10.534;2022-08-02T13:18:57;27.60;43.60
21734;DHT22;11029;47.820;10.534;2022-08-02T13:21:24;27.70;44.20
21734;DHT22;11029;47.820;10.534;2022-08-02T13:24:07;27.80;42.40
21734;DHT22;11029;47.820;10.534;2022-08-02T13:26:54;27.40;44.10
21734;DHT22;11029;47.820;10.534;2022-08-02T13:29:20;27.50;44.10
21734;DHT22;11029;47.820;10.534;2022-08-02T13:31:47;27.80;43.10
21734;DHT22;11029;47.820;10.534;2022-08-02T13:34:14;28.00;42.60
21734;DHT22;11029;47.820;10.534;2022-08-02T13:36:42;27.90;42.40
21734;DHT22;11029;47.820;10.534;2022-08-02T13:39:09;27.70;42.90
21734;DHT22;11029;47.820;10.534;2022-08-02T13:41:37;27.60;42.00
21734;DHT22;11029;47.820;10.534;2022-08-02T13:44:04;27.70;42.70
21734;DHT22;11029;47.820;10.534;2022-08-02T13:46:36;27.80;42.40
21734;DHT22;11029;47.820;10.534;2022-08-02T13:49:15;28.00;40.80
21734;DHT22;11029;47.820;10.534;2022-08-02T13:51:48;27.80;42.70
21734;DHT22;11029;47.820;10.534;2022-08-02T13:54:15;28.10;41.60
21734;DHT22;11029;47.820;10.534;2022-08-02T13:56:42;28.20;41.00
21734;DHT22;11029;47.820;10.534;2022-08-02T13:59:09;28.40;41.30
21734;DHT22;11029;47.820;10.534;2022-08-02T14:01:56;28.40;41.50
21734;DHT22;11029;47.820;10.534;2022-08-02T14:04:24;28.80;40.40
21734;DHT22;11029;47.820;10.534;2022-08-02T14:06:51;28.70;41.40
21734;DHT22;11029;47.820;10.534;2022-08-02T14:09:18;28.80;41.60
21734;DHT22;11029;47.820;10.534;2022-08-02T14:11:45;28.40;41.30
21734;DHT22;11029;47.820;10.534;2022-08-02T14:14:12;28.30;43.10
21734;DHT22;11029;47.820;10.534;2022-08-02T14:16:43;28.20;41.90
21734;DHT22;11029;47.820;10.534;2022-08-02T14:19:11;27.90;41.90
21734;DHT22;11029;47.820;10.534;2022-08-02T14:21:46;28.00;41.70
21734;DHT22;11029;47.820;10.534;2022-08-02T14:24:19;27.90;41.40
21734;DHT22;11029;47.820;10.534;2022-08-02T14:26:47;27.70;42.40
21734;DHT22;11029;47.820;10.534;2022-08-02T14:29:14;27.80;41.70
21734;DHT22;11029;47.820;10.534;2022-08-02T14:31:41;28.30;40.80
21734;DHT22;11029;47.820;10.534;2022-08-02T14:34:11;28.70;40.20
21734;DHT22;11029;47.820;10.534;2022-08-02T14:36:38;28.80;39.80
21734;DHT22;11029;47.820;10.534;2022-08-02T14:39:05;28.90;39.80
21734;DHT22;11029;47.820;10.534;2022-08-02T14:41:33;28.70;41.30
21734;DHT22;11029;47.820;10.534;2022-08-02T14:44:22;28.90;39.10
21734;DHT22;11029;47.820;10.534;2022-08-02T14:46:48;28.50;40.90
21734;DHT22;11029;47.820;10.534;2022-08-02T14:49:19;28.00;42.50
21734;DHT22;11029;47.820;10.534;2022-08-02T14:51:52;27.80;42.10
21734;DHT22;11029;47.820;10.534;2022-08-02T14:54:20;28.00;42.00
21734;DHT22;11029;47.820;10.534;2022-08-02T14:57:02;28.30;40.60
21734;DHT22;11029;47.820;10.534;2022-08-02T14:59:29;28.60;40.30
21734;DHT22;11029;47.820;10.534;2022-08-02T15:01:57;28.90;40.20
21734;DHT22;11029;47.820;10.534;2022-08-02T15:04:24;28.80;40.40
21734;DHT22;11029;47.820;10.534;2022-08-02T15:06:52;28.40;41.60
21734;DHT22;11029;47.820;10.534;2022-08-02T15:09:19;28.30;41.30
21734;DHT22;11029;47.820;10.534;2022-08-02T15:11:46;28.40;40.70
21734;DHT22;11029;47.820;10.534;2022-08-02T15:14:16;28.50;41.00
21734;DHT22;11029;47.820;10.534;2022-08-02T15:16:54;28.60;41.00
21734;DHT22;11029;47.820;10.534;2022-08-02T15:19:24;28.90;40.30
21734;DHT22;11029;47.820;10.534;2022-08-02T15:22:11;29.30;39.70
21734;DHT22;11029;47.820;10.534;2022-08-02T15:24:41;29.70;39.20
21734;DHT22;11029;47.820;10.534;2022-08-02T15:27:09;29.90;38.50
21734;DHT22;11029;47.820;10.534;2022-08-02T15:29:39;29.90;38.70
21734;DHT22;11029;47.820;10.534;2022-08-02T15:32:06;30.10;38.60
21734;DHT22;11029;47.820;10.534;2022-08-02T15:34:33;30.00;39.00
21734;DHT22;11029;47.820;10.534;2022-08-02T15:36:59;30.20;38.60
21734;DHT22;11029;47.820;10.534;2022-08-02T15:39:26;30.60;37.60
21734;DHT22;11029;47.820;10.534;2022-08-02T15:41:53;30.40;37.70
21734;DHT22;11029;47.820;10.534;2022-08-02T15:44:20;29.70;39.20
21734;DHT22;11029;47.820;10.534;2022-08-02T15:46:46;29.70;38.90
21734;DHT22;11029;47.820;10.534;2022-08-02T15:49:13;29.60;38.50
21734;DHT22;11029;47.820;10.534;2022-08-02T15:51:40;29.70;38.30
21734;DHT22;11029;47.820;10.534;2022-08-02T15:54:07;29.80;38.20
21734;DHT22;11029;47.820;10.534;2022-08-02T15:56:33;29.90;37.40
21734;DHT22;11029;47.820;10.534;2022-08-02T15:59:00;29.50;38.30
21734;DHT22;11029;47.820;10.534;2022-08-02T16:01:27;29.70;38.60
21734;DHT22;11029;47.820;10.534;2022-08-02T16:04:05;30.10;39.40